Time;durP1;ratioP1;P1;durP2;ratioP2;P2;SDS_P1;SDS_P2;PMS_P1;PMS_P2;Temp;Humidity;BMP_temperature;BMP_pressure;BME280_temperature;BME280_humidity;BME280_pressure;Samples;Min_cycle;Max_cycle;Signal;HPM_P1;HPM_P2
2022/07/12 00:02:22;;;;;;;4.80;4.10;;;;;;;14.61;87.87;101161.94;5121991;28;20558;-70
2022/07/12 00:04:49;;;;;;;4.43;4.03;;;;;;;14.59;87.94;101153.16;5122251;28;20762;-69
2022/07/12 00:07:17;;;;;;;4.50;4.10;;;;;;;14.56;87.76;101154.25;5122084;28;20470;-69
2022/07/12 00:09:44;;;;;;;4.80;4.40;;;;;;;14.53;88.25;101162.63;5121286;28;20450;-69
2022/07/12 00:12:11;;;;;;;4.30;4.00;;;;;;;14.53;87.99;101170.72;5122050;28;21157;-69
2022/07/12 00:14:38;;;;;;;4.13;3.83;;;;;;;14.46;87.82;101167.75;5122520;28;20680;-69
2022/07/12 00:17:04;;;;;;;4.17;3.80;;;;;;;14.43;88.22;101165.34;5121181;28;20484;-69
2022/07/12 00:19:32;;;;;;;4.63;3.83;;;;;;;14.42;88.11;101160.09;5122476;28;20968;-69
2022/07/12 00:21:59;;;;;;;6.03;4.00;;;;;;;14.41;87.90;101153.88;5122058;28;20489;-69
2022/07/12 00:24:27;;;;;;;4.53;4.13;;;;;;;14.39;87.97;101153.16;5121171;28;20508;-70
2022/07/12 00:26:54;;;;;;;4.73;4.33;;;;;;;14.38;88.01;101159.53;5121941;28;20466;-69
2022/07/12 00:29:21;;;;;;;4.30;3.90;;;;;;;14.32;87.97;101160.97;5122806;28;20426;-68
2022/07/12 00:31:48;;;;;;;4.27;3.80;;;;;;;14.31;87.89;101150.34;5121310;28;20800;-69
2022/07/12 00:34:15;;;;;;;4.53;3.97;;;;;;;14.21;88.11;101150.34;5121817;28;20459;-69
2022/07/12 00:36:42;;;;;;;4.40;3.90;;;;;;;14.26;88.14;101166.91;5121466;28;20992;-69
2022/07/12 00:39:08;;;;;;;4.60;4.20;;;;;;;14.23;87.95;101161.78;5120781;28;20456;-69
2022/07/12 00:41:37;;;;;;;4.23;3.83;;;;;;;14.21;88.33;101165.63;5121646;28;20481;-70
2022/07/12 00:44:04;;;;;;;5.00;4.50;;;;;;;14.15;88.14;101148.22;5122470;28;20482;-70
2022/07/12 00:46:32;;;;;;;4.53;3.83;;;;;;;14.17;88.01;101156.16;5120530;28;20497;-71
2022/07/12 00:48:59;;;;;;;4.37;4.07;;;;;;;14.15;87.97;101152.72;5122372;28;20449;-71
2022/07/12 00:51:26;;;;;;;4.10;3.70;;;;;;;14.12;87.83;101162.78;5121651;28;21087;-69
2022/07/12 00:53:53;;;;;;;4.50;3.23;;;;;;;14.04;87.61;101162.63;5120970;28;21008;-71
2022/07/12 00:56:21;;;;;;;4.47;4.07;;;;;;;14.01;87.66;101152.19;5120734;28;20477;-69
2022/07/12 00:58:49;;;;;;;3.30;3.00;;;;;;;14.00;87.44;101155.84;5121844;28;20493;-70
2022/07/12 01:01:16;;;;;;;3.97;3.50;;;;;;;13.94;86.97;101154.59;5121215;28;20488;-69
2022/07/12 01:03:43;;;;;;;3.90;2.70;;;;;;;13.89;86.92;101156.84;5121386;28;20488;-69
2022/07/12 01:06:10;;;;;;;3.33;2.77;;;;;;;13.83;86.70;101153.84;5121262;28;20469;-71
2022/07/12 01:08:37;;;;;;;3.80;3.50;;;;;;;13.81;86.52;101153.16;5120421;28;20510;-70
2022/07/12 01:11:04;;;;;;;3.17;2.97;;;;;;;13.76;86.60;101145.50;5121079;28;20478;-69
2022/07/12 01:13:31;;;;;;;3.53;3.23;;;;;;;13.72;86.89;101147.63;5121296;28;20453;-70
2022/07/12 01:15:59;;;;;;;4.10;3.70;;;;;;;13.70;87.25;101141.53;5120251;28;20829;-70
2022/07/12 01:18:27;;;;;;;4.87;4.47;;;;;;;13.70;87.30;101138.84;5121095;28;20445;-70
2022/07/12 01:20:54;;;;;;;4.80;4.27;;;;;;;13.66;87.38;101136.56;5121547;28;20470;-69
2022/07/12 01:23:22;;;;;;;4.90;4.50;;;;;;;13.63;87.50;101136.88;5120478;28;20478;-70
2022/07/12 01:25:49;;;;;;;4.33;3.93;;;;;;;13.64;87.66;101138.56;5120092;28;20477;-69
2022/07/12 01:28:16;;;;;;;4.77;4.37;;;;;;;13.62;87.89;101133.31;5120642;28;20434;-70
2022/07/12 01:30:43;;;;;;;4.73;3.97;;;;;;;13.68;87.96;101137.28;5120455;28;20492;-69
2022/07/12 01:33:10;;;;;;;4.33;3.93;;;;;;;13.68;88.15;101134.59;5121091;28;20453;-69
2022/07/12 01:35:37;;;;;;;4.83;4.33;;;;;;;13.66;88.19;101134.75;5120274;28;20466;-69
2022/07/12 01:38:03;;;;;;;4.60;4.17;;;;;;;13.67;88.01;101124.84;5120887;28;20501;-72
2022/07/12 01:40:32;;;;;;;6.43;4.50;;;;;;;13.69;88.61;101125.56;5119732;28;20477;-72
2022/07/12 01:42:59;;;;;;;6.50;5.17;;;;;;;13.74;88.80;101123.28;5121137;28;21561;-71
2022/07/12 01:45:25;;;;;;;5.27;4.87;;;;;;;13.68;88.42;101122.03;5119925;28;20442;-70
2022/07/12 01:47:52;;;;;;;4.93;4.47;;;;;;;13.62;88.13;101113.66;5119437;28;20454;-71
2022/07/12 01:50:19;;;;;;;4.87;3.83;;;;;;;13.52;87.84;101116.31;5119292;28;20969;-70
2022/07/12 01:52:46;;;;;;;4.40;3.97;;;;;;;13.50;87.79;101115.63;5121060;28;21065;-69
2022/07/12 01:55:13;;;;;;;4.00;3.67;;;;;;;13.36;87.46;101122.22;5119333;28;20450;-69
2022/07/12 01:57:42;;;;;;;3.80;3.37;;;;;;;13.33;87.43;101123.38;5120406;28;20446;-69
2022/07/12 02:00:10;;;;;;;3.37;2.93;;;;;;;13.31;87.38;101122.63;5120329;28;20446;-69
2022/07/12 02:02:37;;;;;;;3.30;3.10;;;;;;;13.25;87.06;101125.84;5119848;28;21014;-69
2022/07/12 02:05:05;;;;;;;3.70;3.37;;;;;;;13.19;86.94;101129.06;5119862;28;20513;-69
2022/07/12 02:07:32;;;;;;;3.53;3.23;;;;;;;13.15;86.76;101127.66;5120466;28;20462;-69
2022/07/12 02:09:59;;;;;;;4.90;4.30;;;;;;;13.06;87.45;101125.78;5119354;28;20461;-69
2022/07/12 02:12:26;;;;;;;5.00;4.40;;;;;;;13.09;87.77;101118.31;5120228;28;20664;-69
2022/07/12 02:14:54;;;;;;;5.20;4.57;;;;;;;13.12;87.87;101122.53;5120158;28;20958;-70
2022/07/12 02:17:21;;;;;;;3.87;3.57;;;;;;;13.10;87.70;101129.88;5119320;28;20481;-70
2022/07/12 02:19:48;;;;;;;4.13;3.47;;;;;;;13.10;87.78;101128.03;5120185;28;20438;-70
2022/07/12 02:22:15;;;;;;;4.03;3.43;;;;;;;13.08;87.53;101132.72;5120095;28;20481;-71
2022/07/12 02:24:42;;;;;;;4.63;3.70;;;;;;;13.03;87.33;101129.56;5118820;28;20850;-70
2022/07/12 02:27:08;;;;;;;5.07;3.60;;;;;;;13.00;87.40;101125.34;5118809;28;20500;-69
2022/07/12 02:29:36;;;;;;;3.70;3.30;;;;;;;12.98;87.40;101135.38;5120373;28;20446;-69
2022/07/12 02:32:05;;;;;;;4.20;3.80;;;;;;;12.98;87.06;101131.81;5118777;28;21002;-69
2022/07/12 02:34:32;;;;;;;4.10;3.80;;;;;;;12.98;86.91;101134.50;5119993;28;20446;-68
2022/07/12 02:36:58;;;;;;;4.67;4.27;;;;;;;12.98;87.01;101134.50;5119002;28;20557;-68
2022/07/12 02:39:25;;;;;;;4.20;3.43;;;;;;;12.97;87.13;101141.72;5119204;28;20830;-68
2022/07/12 02:41:52;;;;;;;4.13;3.30;;;;;;;12.90;86.89;101145.91;5119426;28;20461;-68
2022/07/12 02:44:19;;;;;;;4.40;3.83;;;;;;;12.91;86.98;101144.06;5119792;28;21009;-68
2022/07/12 02:46:46;;;;;;;4.40;3.80;;;;;;;12.88;87.02;101149.69;5118060;28;20477;-68
2022/07/12 02:49:14;;;;;;;3.97;3.67;;;;;;;12.88;87.01;101150.56;5120089;28;20442;-68
2022/07/12 02:51:41;;;;;;;4.80;3.80;;;;;;;12.90;87.09;101150.44;5118939;28;20477;-70
2022/07/12 02:54:08;;;;;;;4.40;3.73;;;;;;;12.90;87.49;101147.75;5119299;28;20446;-71
2022/07/12 02:56:34;;;;;;;4.20;3.80;;;;;;;12.93;88.42;101153.72;5119904;28;20519;-70
2022/07/12 02:59:01;;;;;;;6.13;3.87;;;;;;;12.98;88.40;101146.09;5120306;28;20445;-70
2022/07/12 03:01:28;;;;;;;4.27;3.67;;;;;;;13.05;88.22;101149.06;5118779;28;20474;-70
2022/07/12 03:03:55;;;;;;;5.87;4.03;;;;;;;13.08;88.37;101158.72;5123434;28;21026;-71
2022/07/12 03:06:23;;;;;;;7.93;4.30;;;;;;;13.11;88.22;101159.28;5123072;28;20485;-71
2022/07/12 03:08:50;;;;;;;3.70;3.40;;;;;;;13.21;88.21;101167.41;5123265;28;20457;-70
2022/07/12 03:11:17;;;;;;;4.23;3.60;;;;;;;13.23;87.83;101161.88;5123270;28;20485;-71
2022/07/12 03:13:43;;;;;;;3.30;3.00;;;;;;;13.30;87.57;101174.63;5123569;28;20442;-71
2022/07/12 03:16:10;;;;;;;4.83;3.43;;;;;;;13.34;87.53;101162.66;5120655;28;20473;-71
2022/07/12 03:18:37;;;;;;;4.17;3.40;;;;;;;13.43;87.51;101165.50;5124443;28;20950;-71
2022/07/12 03:21:04;;;;;;;4.23;3.70;;;;;;;13.46;87.58;101171.47;5121715;28;20481;-72
2022/07/12 03:23:32;;;;;;;4.50;4.10;;;;;;;13.50;87.46;101169.34;5123033;28;20434;-73
2022/07/12 03:25:59;;;;;;;5.47;4.67;;;;;;;13.61;87.97;101168.38;5122483;28;20457;-71
2022/07/12 03:28:26;;;;;;;4.30;3.77;;;;;;;13.69;88.07;101168.53;5123466;28;20932;-72
2022/07/12 03:30:53;;;;;;;5.90;4.60;;;;;;;13.71;88.34;101177.31;5122258;28;20922;-70
2022/07/12 03:33:19;;;;;;;5.93;4.97;;;;;;;13.89;88.12;101174.81;5124073;28;20798;-69
2022/07/12 03:35:46;;;;;;;4.60;4.10;;;;;;;14.00;88.27;101172.00;5122521;28;20481;-69
2022/07/12 03:38:13;;;;;;;5.10;4.70;;;;;;;14.02;88.29;101175.38;5123970;28;20481;-69
2022/07/12 03:40:41;;;;;;;5.60;3.97;;;;;;;13.82;87.28;101174.53;5121247;28;20465;-69
2022/07/12 03:43:08;;;;;;;4.50;4.10;;;;;;;13.89;86.87;101170.28;5123733;28;20442;-71
2022/07/12 03:45:35;;;;;;;5.63;4.20;;;;;;;13.79;85.87;101177.47;5122074;28;20480;-70
2022/07/12 03:48:02;;;;;;;4.10;3.70;;;;;;;13.74;85.26;101172.50;5123034;28;20454;-69
2022/07/12 03:50:28;;;;;;;5.20;3.50;;;;;;;13.89;85.16;101174.81;5121658;28;20499;-70
2022/07/12 03:52:55;;;;;;;4.03;3.63;;;;;;;13.84;84.69;101172.53;5123481;28;20446;-69
2022/07/12 03:55:22;;;;;;;5.00;3.70;;;;;;;13.72;84.60;101179.88;5122008;28;20450;-69
2022/07/12 03:57:51;;;;;;;3.47;3.17;;;;;;;13.78;84.56;101186.53;5122246;28;20481;-69
2022/07/12 04:00:18;;;;;;;3.77;3.37;;;;;;;13.81;83.57;101175.50;5121535;28;20898;-69
2022/07/12 04:02:44;;;;;;;3.07;2.70;;;;;;;13.94;83.75;101191.38;5103640;28;20441;-71
2022/07/12 04:05:12;;;;;;;4.10;3.23;;;;;;;13.93;84.33;101184.28;5122472;28;20477;-70
2022/07/12 04:07:40;;;;;;;4.00;3.60;;;;;;;14.25;82.89;101183.16;5122748;28;20453;-71
2022/07/12 04:10:08;;;;;;;3.50;3.00;;;;;;;14.18;84.21;101185.56;5121426;28;20450;-70
2022/07/12 04:12:35;;;;;;;4.50;3.70;;;;;;;14.17;84.21;101186.59;5120203;28;20486;-71
2022/07/12 04:15:03;;;;;;;4.50;3.20;;;;;;;14.09;84.14;101194.50;5121975;28;20449;-74
2022/07/12 04:17:30;;;;;;;4.13;3.40;;;;;;;14.22;84.44;101192.38;5119998;28;20473;-75
2022/07/12 04:19:57;;;;;;;4.07;3.67;;;;;;;14.43;82.79;101194.94;5122915;28;20867;-75
2022/07/12 04:22:24;;;;;;;3.70;3.00;;;;;;;14.55;82.76;101192.06;5122695;28;20474;-76
2022/07/12 04:24:50;;;;;;;4.73;3.60;;;;;;;14.60;82.63;101197.91;5121794;28;20485;-77
2022/07/12 04:27:17;;;;;;;4.17;3.83;;;;;;;14.65;82.85;101193.81;5117193;28;20477;-74
2022/07/12 04:29:44;;;;;;;5.10;3.70;;;;;;;14.57;83.07;101203.56;5121442;28;20450;-74
2022/07/12 04:32:12;;;;;;;6.73;3.87;;;;;;;14.60;83.54;101201.47;5120646;28;20470;-76
2022/07/12 04:34:39;;;;;;;4.53;3.50;;;;;;;14.69;84.32;101205.97;5120695;28;20458;-75
2022/07/12 04:37:06;;;;;;;4.17;3.87;;;;;;;14.60;84.01;101190.69;5126710;27;20481;-74
2022/07/12 04:39:32;;;;;;;4.70;4.10;;;;;;;14.72;84.38;101198.59;5127026;27;20457;-74
2022/07/12 04:41:59;;;;;;;4.80;3.90;;;;;;;14.91;84.31;101213.88;5127420;27;20485;-74
2022/07/12 04:44:26;;;;;;;4.20;3.70;;;;;;;15.12;83.10;101213.66;5121395;28;20489;-74
2022/07/12 04:46:53;;;;;;;10.20;5.07;;;;;;;15.06;83.72;101218.63;5120113;28;20466;-73
2022/07/12 04:49:21;;;;;;;5.70;4.90;;;;;;;15.17;83.58;101216.78;5121796;28;20464;-74
2022/07/12 04:51:48;;;;;;;5.17;4.50;;;;;;;15.20;83.39;101220.00;5132765;27;20473;-74
2022/07/12 04:54:14;;;;;;;5.30;4.80;;;;;;;15.36;83.87;101226.63;5142548;27;20449;-73
2022/07/12 04:56:41;;;;;;;4.83;4.03;;;;;;;15.55;83.24;101223.00;5120984;27;20482;-73
2022/07/12 04:59:08;;;;;;;6.37;5.23;;;;;;;15.73;82.76;101221.22;5121921;28;20654;-74
2022/07/12 05:01:35;;;;;;;5.90;4.50;;;;;;;15.92;81.61;101225.69;5121578;28;20484;-74
2022/07/12 05:04:02;;;;;;;6.67;4.77;;;;;;;15.90;81.82;101218.72;5121454;28;20492;-75
2022/07/12 05:06:30;;;;;;;5.13;4.60;;;;;;;15.92;81.82;101214.88;5120826;28;20972;-76
2022/07/12 05:08:57;;;;;;;5.73;4.83;;;;;;;15.97;81.91;101212.59;5121476;28;20460;-77
2022/07/12 05:11:25;;;;;;;7.23;5.50;;;;;;;16.33;80.82;101209.88;5121131;28;20474;-74
2022/07/12 05:13:52;;;;;;;5.20;4.70;;;;;;;16.49;79.81;101216.44;5118957;28;20442;-66
2022/07/12 05:16:19;;;;;;;6.60;5.70;;;;;;;16.65;78.98;101221.97;5118127;28;20481;-67
2022/07/12 05:18:45;;;;;;;5.80;5.30;;;;;;;16.82;78.27;101235.59;5117565;28;20446;-76
2022/07/12 05:21:12;;;;;;;7.53;6.83;;;;;;;16.69;78.80;101233.31;5128583;27;20485;-77
2022/07/12 05:23:40;;;;;;;6.17;5.57;;;;;;;16.65;79.72;101245.44;5126378;27;20881;-77
2022/07/12 05:26:07;;;;;;;6.73;6.03;;;;;;;16.67;80.13;101243.44;5118327;28;20482;-77
2022/07/12 05:28:34;;;;;;;5.90;5.40;;;;;;;17.05;79.01;101253.03;5115529;27;20468;-75
2022/07/12 05:31:01;;;;;;;7.40;6.70;;;;;;;17.01;78.53;101251.66;5120119;28;20462;-72
2022/07/12 05:33:28;;;;;;;9.07;5.70;;;;;;;17.18;78.09;101251.75;5116681;28;20450;-77
2022/07/12 05:35:55;;;;;;;5.97;5.33;;;;;;;17.36;77.87;101249.84;5119058;28;20512;-76
2022/07/12 05:38:22;;;;;;;7.70;5.77;;;;;;;17.52;77.51;101245.53;5118147;28;20490;-75
2022/07/12 05:40:50;;;;;;;7.23;5.93;;;;;;;17.69;77.12;101253.53;5117141;28;20530;-76
2022/07/12 05:43:17;;;;;;;6.60;6.00;;;;;;;17.79;75.97;101247.97;5113045;28;20469;-76
2022/07/12 05:45:47;;;;;;;6.27;5.70;;;;;;;17.83;75.75;101249.38;5114624;28;20504;-74
2022/07/12 05:48:13;;;;;;;5.70;5.13;;;;;;;18.20;74.52;101244.59;5118649;28;20509;-76
2022/07/12 05:50:40;;;;;;;7.60;5.73;;;;;;;18.41;74.06;101241.41;5120080;28;20469;-76
2022/07/12 05:53:24;;;;;;;6.07;5.53;;;;;;;18.69;73.15;101241.09;5120088;28;20529;-76
2022/07/12 05:55:53;;;;;;;5.67;5.17;;;;;;;18.96;71.56;101235.34;5118117;28;21012;-75
2022/07/12 05:58:21;;;;;;;5.83;5.30;;;;;;;21.50;64.77;101237.47;5118812;28;20584;-75
2022/07/12 06:00:48;;;;;;;5.70;5.20;;;;;;;21.55;61.19;101235.03;5117247;28;20470;-77
2022/07/12 06:03:16;;;;;;;4.80;4.03;;;;;;;20.80;63.56;101234.09;5119249;28;20454;-74
2022/07/12 06:05:43;;;;;;;5.33;4.77;;;;;;;20.59;64.33;101226.59;5119750;28;20501;-76
2022/07/12 06:08:10;;;;;;;5.00;4.10;;;;;;;21.69;61.02;101235.19;5120198;28;21033;-76
2022/07/12 06:10:36;;;;;;;4.67;4.20;;;;;;;22.54;58.18;101220.03;5118926;28;20474;-76
2022/07/12 06:13:05;;;;;;;4.60;4.20;;;;;;;23.16;55.41;101234.81;5119410;28;20442;-76
2022/07/12 06:15:31;;;;;;;4.60;4.20;;;;;;;23.12;56.02;101234.38;5118548;28;20886;-76
2022/07/12 06:17:58;;;;;;;6.87;4.83;;;;;;;22.57;56.97;101244.16;5119150;28;21192;-74
2022/07/12 06:20:25;;;;;;;7.23;5.50;;;;;;;21.80;60.18;101238.28;5120269;28;20430;-75
2022/07/12 06:22:52;;;;;;;6.20;4.80;;;;;;;22.04;59.46;101238.97;5120316;28;20441;-75
2022/07/12 06:25:19;;;;;;;7.23;5.07;;;;;;;21.72;60.34;101240.28;5117596;28;20481;-74
2022/07/12 06:27:47;;;;;;;5.53;5.03;;;;;;;21.89;59.58;101240.88;5119888;28;20461;-75
2022/07/12 06:30:17;;;;;;;5.70;5.00;;;;;;;21.98;60.28;101242.47;5119550;28;20425;-75
2022/07/12 06:32:45;;;;;;;5.67;5.10;;;;;;;21.86;59.77;101255.72;5119414;28;20442;-75
2022/07/12 06:35:12;;;;;;;5.70;4.60;;;;;;;21.73;60.10;101241.94;5118767;28;20900;-76
2022/07/12 06:37:39;;;;;;;6.17;4.33;;;;;;;20.77;64.01;101249.94;5119233;28;20478;-76
2022/07/12 06:40:07;;;;;;;5.67;5.07;;;;;;;20.91;63.92;101246.38;5119080;28;20464;-77
2022/07/12 06:42:33;;;;;;;5.20;4.70;;;;;;;21.45;61.92;101254.31;5119412;28;20454;-76
2022/07/12 06:45:00;;;;;;;6.13;4.60;;;;;;;21.69;60.60;101254.25;5119955;28;20478;-75
2022/07/12 06:47:29;;;;;;;4.87;4.40;;;;;;;22.28;59.66;101256.88;5117527;28;20547;-77
2022/07/12 06:49:56;;;;;;;4.50;4.10;;;;;;;23.11;56.97;101245.47;5119910;28;20434;-77
2022/07/12 06:52:23;;;;;;;6.27;4.47;;;;;;;23.33;56.85;101242.66;5119475;28;20498;-76
2022/07/12 06:54:50;;;;;;;4.27;3.83;;;;;;;25.99;48.27;101238.47;5118475;28;20442;-77
2022/07/12 06:57:17;;;;;;;4.53;4.13;;;;;;;26.23;46.28;101245.06;5114429;28;20492;-76
2022/07/12 06:59:44;;;;;;;5.37;4.27;;;;;;;27.52;42.91;101242.75;5116187;28;20446;-77
2022/07/12 07:02:11;;;;;;;3.57;3.27;;;;;;;27.68;43.13;101243.19;5118316;28;20469;-76
2022/07/12 07:04:39;;;;;;;6.07;4.07;;;;;;;26.15;45.66;101240.72;5119036;28;20510;-76
2022/07/12 07:07:05;;;;;;;4.13;3.70;;;;;;;24.77;49.31;101241.69;5118381;28;20553;-74
2022/07/12 07:09:33;;;;;;;8.43;3.40;;;;;;;23.44;51.84;101237.47;5118718;28;20491;-76
2022/07/12 07:12:00;;;;;;;3.70;3.40;;;;;;;23.63;52.36;101243.25;5119054;28;20482;-75
2022/07/12 07:14:27;;;;;;;5.37;3.80;;;;;;;23.00;54.78;101240.50;5119061;28;20461;-76
2022/07/12 07:16:54;;;;;;;4.00;3.30;;;;;;;22.70;55.44;101238.81;5116378;28;21025;-76
2022/07/12 07:19:22;;;;;;;3.40;3.10;;;;;;;22.71;53.92;101245.97;5118955;28;20449;-74
2022/07/12 07:21:50;;;;;;;3.80;3.27;;;;;;;22.32;55.69;101252.72;5118247;28;20477;-74
2022/07/12 07:24:17;;;;;;;4.10;3.30;;;;;;;22.64;55.89;101252.41;5115068;28;20526;-75
2022/07/12 07:26:44;;;;;;;3.80;3.50;;;;;;;21.51;59.13;101263.66;5117856;28;20481;-76
2022/07/12 07:31:55;;;;;;;4.20;3.80;;;;;;;25.76;45.95;101261.72;5118523;28;20491;-76
2022/07/12 07:34:23;;;;;;;3.77;2.87;;;;;;;27.57;42.63;101267.63;5119453;28;20727;-77
2022/07/12 07:36:52;;;;;;;3.33;2.73;;;;;;;27.33;42.16;101272.09;5118784;28;20474;-77
2022/07/12 07:39:18;;;;;;;3.33;3.03;;;;;;;24.99;47.76;101261.44;5117863;28;20481;-77
2022/07/12 07:41:45;;;;;;;2.63;2.43;;;;;;;24.56;47.89;101261.84;5118306;28;20473;-74
2022/07/12 07:44:12;;;;;;;2.53;2.33;;;;;;;23.93;50.22;101268.41;5118621;28;20442;-76
2022/07/12 07:46:39;;;;;;;3.67;2.90;;;;;;;23.94;51.38;101266.50;5116654;28;20466;-76
2022/07/12 07:49:06;;;;;;;3.20;2.90;;;;;;;24.24;50.87;101267.88;5121514;28;20495;-77
2022/07/12 07:51:32;;;;;;;3.00;2.70;;;;;;;26.22;45.82;101260.69;5121653;28;20477;-76
2022/07/12 07:54:02;;;;;;;3.03;2.27;;;;;;;26.81;44.12;101263.28;5122028;28;20454;-76
2022/07/12 07:56:29;;;;;;;2.30;2.10;;;;;;;28.03;40.65;101265.38;5121865;28;20538;-75
2022/07/12 07:58:56;;;;;;;2.27;1.90;;;;;;;27.63;40.35;101259.53;5122796;28;20430;-77
2022/07/12 08:01:42;;;;;;;2.60;2.30;;;;;;;27.93;40.35;101256.84;5120923;28;20474;-76
2022/07/12 08:04:09;;;;;;;1.93;1.77;;;;;;;28.72;39.42;101254.84;5122607;28;20465;-76
2022/07/12 08:06:36;;;;;;;2.73;2.20;;;;;;;26.94;43.20;101252.16;5121868;28;20477;-74
2022/07/12 08:09:04;;;;;;;2.37;2.10;;;;;;;28.32;39.29;101243.63;5121833;28;20439;-76
2022/07/12 08:11:31;;;;;;;2.00;1.70;;;;;;;27.08;42.23;101239.16;5121413;28;20477;-77
2022/07/12 08:13:58;;;;;;;4.23;1.97;;;;;;;26.33;43.95;101245.44;5122696;28;20472;-76
2022/07/12 08:16:25;;;;;;;2.40;2.20;;;;;;;27.14;42.13;101234.69;5119976;28;20481;-75
2022/07/12 08:18:52;;;;;;;2.20;1.80;;;;;;;27.48;41.89;101230.53;5122298;28;20422;-77
2022/07/12 08:21:19;;;;;;;2.67;2.23;;;;;;;26.80;42.75;101223.16;5121809;28;20466;-76
2022/07/12 08:23:46;;;;;;;2.53;1.90;;;;;;;27.62;41.15;101228.47;5121572;28;20464;-76
2022/07/12 08:26:14;;;;;;;2.07;1.83;;;;;;;28.76;38.55;101230.44;5120525;28;20538;-76
2022/07/12 08:28:41;;;;;;;3.40;2.00;;;;;;;29.18;37.53;101222.09;5120231;28;20851;-76
2022/07/12 08:31:08;;;;;;;2.10;1.90;;;;;;;28.98;37.27;101244.47;5101002;28;20477;-77
2022/07/12 08:33:35;;;;;;;2.10;1.90;;;;;;;29.21;36.14;101235.38;5101795;28;20566;-75
2022/07/12 08:36:02;;;;;;;1.60;1.50;;;;;;;30.25;34.20;101238.34;5101418;28;20470;-76
2022/07/12 08:38:30;;;;;;;2.00;1.73;;;;;;;29.45;36.16;101233.44;5100439;28;20701;-76
2022/07/12 08:40:57;;;;;;;1.53;1.43;;;;;;;30.08;34.63;101227.25;5110406;28;21287;-75
2022/07/12 08:43:26;;;;;;;2.27;1.30;;;;;;;29.15;36.94;101232.72;5121154;28;20454;-76
2022/07/12 08:45:53;;;;;;;1.33;1.10;;;;;;;31.28;33.51;101233.44;5118729;28;20480;-76
2022/07/12 08:48:20;;;;;;;1.30;1.10;;;;;;;31.78;32.16;101226.03;5121246;28;20434;-77
2022/07/12 08:51:01;;;;;;;2.93;1.53;;;;;;;30.99;33.50;101235.50;5120629;28;20500;-76
2022/07/12 08:53:28;;;;;;;1.40;1.30;;;;;;;31.53;32.91;101241.22;5120730;28;20430;-76
2022/07/12 08:55:55;;;;;;;1.20;1.00;;;;;;;29.94;34.84;101243.28;5120465;28;20503;-75
2022/07/12 08:58:22;;;;;;;1.53;1.43;;;;;;;31.59;31.49;101242.13;5120898;28;20450;-77
2022/07/12 09:00:51;;;;;;;1.43;1.17;;;;;;;29.70;35.64;101235.03;5120648;28;20523;-76
2022/07/12 09:03:19;;;;;;;2.67;1.20;;;;;;;29.97;34.81;101229.00;5121089;28;20458;-76
2022/07/12 09:05:52;;;;;;;4.70;1.80;;;;;;;29.67;36.35;101241.06;5119971;28;20508;-76
2022/07/12 09:08:19;;;;;;;2.07;1.37;;;;;;;29.59;37.62;101242.25;5120715;28;20454;-75
2022/07/12 09:10:55;;;;;;;3.67;1.10;;;;;;;31.57;33.49;101243.50;5120263;28;20476;-76
2022/07/12 09:13:22;;;;;;;2.60;1.33;;;;;;;29.48;36.23;101243.97;5120486;28;21038;-76
2022/07/12 09:15:50;;;;;;;6.40;1.50;;;;;;;30.54;35.16;101250.19;5119427;28;20472;-76
2022/07/12 09:18:22;;;;;;;2.60;1.80;;;;;;;30.71;35.64;101244.66;5121490;28;20473;-75
2022/07/12 09:20:52;;;;;;;1.40;1.30;;;;;;;28.90;37.21;101251.19;5120924;28;20533;-76
2022/07/12 09:23:19;;;;;;;4.30;1.17;;;;;;;30.13;35.79;101250.25;5120297;28;20446;-76
2022/07/12 09:25:48;;;;;;;1.13;1.00;;;;;;;32.80;30.85;101251.16;5119091;28;20505;-75
2022/07/12 09:28:16;;;;;;;2.30;1.20;;;;;;;30.73;34.22;101248.03;5100282;28;20447;-77
2022/07/12 09:30:50;;;;;;;1.17;0.93;;;;;;;32.28;32.69;101249.84;5099983;28;20483;-77
2022/07/12 09:36:07;;;;;;;1.50;1.00;;;;;;;32.92;31.39;101250.97;5099979;28;21113;-76
2022/07/12 09:38:34;;;;;;;2.30;1.10;;;;;;;31.67;31.48;101252.75;5099868;28;20455;-76
2022/07/12 09:41:01;;;;;;;1.40;0.87;;;;;;;31.09;32.97;101243.06;5109623;28;20818;-76
2022/07/12 09:43:29;;;;;;;1.10;1.00;;;;;;;32.23;32.80;101247.03;5121561;28;20453;-76
2022/07/12 09:45:59;;;;;;;1.37;1.10;;;;;;;31.37;32.66;101247.63;5114573;28;20735;-76
2022/07/12 09:48:31;;;;;;;1.23;1.13;;;;;;;28.97;36.64;101253.78;5125704;27;20446;-75
2022/07/12 09:50:58;;;;;;;1.40;1.10;;;;;;;28.92;37.46;101246.25;5119338;28;20492;-75
2022/07/12 09:53:30;;;;;;;1.10;1.00;;;;;;;30.69;35.79;101236.63;5119922;28;20449;-76
2022/07/12 09:55:57;;;;;;;1.80;1.30;;;;;;;31.68;32.47;101242.50;5119369;28;20550;-74
2022/07/12 09:58:27;;;;;;;2.10;1.40;;;;;;;29.86;37.15;101239.00;5120340;28;20446;-75
2022/07/12 10:00:55;;;;;;;1.10;1.00;;;;;;;31.19;35.23;101229.41;5118262;28;20474;-74
2022/07/12 10:03:25;;;;;;;3.33;1.33;;;;;;;31.64;33.11;101222.84;5120154;28;20510;-75
2022/07/12 10:05:52;;;;;;;1.43;1.17;;;;;;;31.23;35.54;101230.59;5119297;28;20474;-75
2022/07/12 10:08:21;;;;;;;1.30;1.17;;;;;;;30.04;34.68;101227.75;5120178;28;20442;-75
2022/07/12 10:10:49;;;;;;;1.70;1.30;;;;;;;30.66;35.63;101226.09;5117191;28;20474;-76
2022/07/12 10:13:16;;;;;;;1.40;1.20;;;;;;;32.99;29.85;101231.34;5120581;28;20427;-75
2022/07/12 10:15:44;;;;;;;1.50;1.00;;;;;;;33.05;30.39;101229.44;5118195;28;20473;-75
2022/07/12 10:18:17;;;;;;;1.50;1.20;;;;;;;30.75;33.15;101234.81;5118509;28;20470;-75
2022/07/12 10:20:48;;;;;;;1.53;1.30;;;;;;;30.93;34.80;101230.97;5120043;28;20480;-75
2022/07/12 10:23:36;;;;;;;1.33;1.23;;;;;;;29.89;34.43;101227.44;5120142;28;20457;-75
2022/07/12 10:26:25;;;;;;;1.50;1.10;;;;;;;31.86;33.56;101222.81;5111808;28;20482;-75
2022/07/12 10:29:01;;;;;;;3.00;1.40;;;;;;;31.89;32.94;101226.97;5118602;28;20437;-74
2022/07/12 10:31:31;;;;;;;1.47;1.33;;;;;;;31.57;34.14;101219.44;5117918;28;20471;-75
2022/07/12 10:34:15;;;;;;;1.50;1.03;;;;;;;32.41;31.47;101225.59;5119491;28;20481;-75
2022/07/12 10:37:12;;;;;;;2.50;1.13;;;;;;;31.93;32.07;101221.81;5118509;28;20477;-75
2022/07/12 10:39:40;;;;;;;1.83;1.20;;;;;;;30.06;34.74;101207.38;5118828;28;20450;-75
2022/07/12 10:42:17;;;;;;;2.07;1.17;;;;;;;29.96;35.71;101208.84;5119201;28;20466;-74
2022/07/12 10:44:46;;;;;;;2.77;1.57;;;;;;;31.65;33.19;101209.88;5117696;28;20467;-75
2022/07/12 10:47:15;;;;;;;1.20;1.10;;;;;;;32.01;32.69;101211.09;5117840;28;21001;-74
2022/07/12 10:49:50;;;;;;;3.00;1.20;;;;;;;32.05;33.63;101205.91;5120426;28;20444;-75
2022/07/12 10:52:25;;;;;;;1.30;1.13;;;;;;;32.68;31.67;101210.91;5116917;28;21063;-76
2022/07/12 10:55:17;;;;;;;1.70;1.30;;;;;;;32.59;32.12;101199.47;5119098;28;20449;-75
2022/07/12 10:57:49;;;;;;;6.40;1.50;;;;;;;32.41;32.18;101200.69;5119323;28;20468;-75
2022/07/12 11:00:16;;;;;;;1.73;1.33;;;;;;;31.81;33.08;101206.19;5118283;28;20445;-74
2022/07/12 11:02:43;;;;;;;1.40;1.30;;;;;;;31.83;32.63;101194.84;5119585;28;20434;-75
2022/07/12 11:05:10;;;;;;;2.67;1.23;;;;;;;31.02;33.54;101196.28;5118343;28;20488;-75
2022/07/12 11:07:39;;;;;;;2.40;1.30;;;;;;;30.33;35.56;101185.50;5119017;28;20982;-74
2022/07/12 11:10:07;;;;;;;1.50;1.40;;;;;;;30.60;34.40;101185.69;5118378;28;20445;-76
2022/07/12 11:12:34;;;;;;;1.57;1.40;;;;;;;30.19;35.40;101182.22;5118908;28;20430;-75
2022/07/12 11:15:02;;;;;;;1.60;1.20;;;;;;;31.59;33.62;101186.00;5118112;28;20454;-73
2022/07/12 11:17:30;;;;;;;1.20;1.10;;;;;;;31.77;32.85;101187.59;5117103;28;20500;-74
2022/07/12 11:20:06;;;;;;;1.37;1.03;;;;;;;30.94;34.37;101182.94;5119284;28;20502;-75
2022/07/12 11:22:33;;;;;;;3.77;1.33;;;;;;;31.63;32.87;101179.72;5119326;28;20462;-74
2022/07/12 11:25:01;;;;;;;1.63;1.13;;;;;;;32.23;31.54;101175.06;5122361;28;20442;-75
2022/07/12 11:27:28;;;;;;;1.10;1.00;;;;;;;32.57;30.61;101176.72;5120913;28;21061;-75
2022/07/12 11:29:58;;;;;;;1.17;1.00;;;;;;;32.39;29.85;101177.97;5122753;28;20442;-74
2022/07/12 11:32:35;;;;;;;1.23;1.10;;;;;;;31.96;32.38;101169.56;5122027;28;20482;-73
2022/07/12 11:35:03;;;;;;;5.73;1.00;;;;;;;32.49;31.20;101167.00;5108836;28;20458;-73